createdAt,value
2019-03-24T00:00:55.431Z,34.92
2019-03-24T00:03:23.703Z,31.73
2019-03-24T00:05:51.956Z,38.73
2019-03-24T00:08:20.163Z,47.85
2019-03-24T00:10:48.433Z,41.83
2019-03-24T00:13:16.639Z,39.48
2019-03-24T00:15:44.884Z,34.92
2019-03-24T00:18:13.080Z,34.30
2019-03-24T00:20:41.302Z,37.57
2019-03-24T00:23:09.547Z,40.98
2019-03-24T00:25:37.756Z,46.85
2019-03-24T00:28:06.000Z,34.35
2019-03-24T00:30:34.264Z,38.70
2019-03-24T00:33:02.431Z,36.85
2019-03-24T00:35:30.631Z,33.75
2019-03-24T00:37:58.856Z,36.48
2019-03-24T00:40:27.081Z,41.60
2019-03-24T00:42:55.289Z,37.95
2019-03-24T00:45:36.240Z,37.80
2019-03-24T00:47:56.145Z,41.42
2019-03-24T00:50:24.356Z,41.10
2019-03-24T00:52:52.608Z,35.92
2019-03-24T00:55:20.829Z,30.40
2019-03-24T00:57:49.039Z,39.38
2019-03-24T01:00:17.279Z,25.48
2019-03-24T01:02:45.509Z,32.93
2019-03-24T01:05:13.734Z,45.38
2019-03-24T01:07:41.960Z,37.33
2019-03-24T01:10:10.179Z,32.65
2019-03-24T01:12:38.410Z,40.45
2019-03-24T01:15:07.662Z,30.93
2019-03-24T01:17:36.559Z,38.88
2019-03-24T01:20:07.115Z,31.57
2019-03-24T01:22:35.820Z,37.65
2019-03-24T01:25:04.796Z,40.05
2019-03-24T01:27:33.010Z,41.58
2019-03-24T01:30:01.217Z,30.35
2019-03-24T01:32:29.439Z,40.40
2019-03-24T01:34:57.645Z,47.58
2019-03-24T01:37:25.865Z,37.33
2019-03-24T01:39:54.077Z,34.75
2019-03-24T01:42:22.291Z,39.75
2019-03-24T01:44:50.504Z,32.38
2019-03-24T01:47:18.718Z,38.98
2019-03-24T01:49:46.939Z,34.70
2019-03-24T01:52:15.154Z,34.33
2019-03-24T01:54:43.371Z,42.80
2019-03-24T01:57:11.599Z,36.73
2019-03-24T01:59:39.819Z,36.53
2019-03-24T02:02:08.028Z,37.20
2019-03-24T02:04:36.309Z,34.60
2019-03-24T02:07:04.478Z,40.20
2019-03-24T02:09:32.691Z,33.67
2019-03-24T02:12:00.946Z,40.23
2019-03-24T02:14:29.162Z,36.63
2019-03-24T02:16:59.214Z,39.78
2019-03-24T02:19:27.516Z,38.00
2019-03-24T02:21:55.755Z,34.80
2019-03-24T02:24:23.961Z,38.35
2019-03-24T02:26:52.179Z,41.23
2019-03-24T02:29:20.390Z,40.60
2019-03-24T02:31:48.634Z,35.25
2019-03-24T02:34:16.830Z,39.67
2019-03-24T02:36:45.410Z,49.45
2019-03-24T02:39:13.627Z,40.63
2019-03-24T02:41:41.835Z,43.20
2019-03-24T02:44:10.061Z,30.32
2019-03-24T02:46:38.265Z,35.43
2019-03-24T02:49:06.498Z,38.20
2019-03-24T02:51:34.708Z,40.05
2019-03-24T02:54:02.926Z,42.98
2019-03-24T02:56:31.121Z,45.20
2019-03-24T02:58:59.347Z,40.85
2019-03-24T03:01:27.618Z,34.65
2019-03-24T03:03:55.881Z,36.75
2019-03-24T03:06:24.111Z,42.03
2019-03-24T03:08:52.322Z,45.00
2019-03-24T03:11:20.554Z,34.13
2019-03-24T03:13:48.765Z,33.53
2019-03-24T03:16:16.994Z,44.40
2019-03-24T03:18:45.197Z,43.20
2019-03-24T03:21:13.422Z,34.80
2019-03-24T03:23:41.630Z,46.75
2019-03-24T03:26:09.847Z,42.03
2019-03-24T03:28:38.073Z,35.33
2019-03-24T03:31:06.279Z,40.78
2019-03-24T03:33:34.492Z,42.13
2019-03-24T03:36:02.709Z,33.78
2019-03-24T03:38:30.954Z,34.40
2019-03-24T03:40:59.506Z,50.20
2019-03-24T03:43:27.694Z,33.08
2019-03-24T03:45:55.907Z,33.23
2019-03-24T03:48:24.123Z,35.13
2019-03-24T03:50:52.338Z,37.98
2019-03-24T03:53:20.562Z,33.20
2019-03-24T03:55:48.775Z,36.08
2019-03-24T03:58:16.988Z,32.13
2019-03-24T04:00:45.193Z,42.87
2019-03-24T04:03:13.417Z,45.20
2019-03-24T04:05:41.639Z,35.45
2019-03-24T04:08:09.849Z,34.75
2019-03-24T04:10:38.104Z,38.70
2019-03-24T04:13:06.312Z,37.70
2019-03-24T04:15:34.542Z,30.48
2019-03-24T04:18:02.737Z,34.70
2019-03-24T04:20:30.934Z,35.85
2019-03-24T04:22:59.730Z,30.00
2019-03-24T04:25:27.937Z,28.30
2019-03-24T04:27:56.159Z,34.03
2019-03-24T04:30:24.371Z,35.20
2019-03-24T04:32:52.585Z,33.25
2019-03-24T04:35:20.799Z,32.25
2019-03-24T04:37:49.009Z,30.10
2019-03-24T04:40:17.221Z,37.98
2019-03-24T04:42:45.432Z,33.92
2019-03-24T04:45:13.654Z,31.02
2019-03-24T04:47:41.868Z,39.70
2019-03-24T04:50:10.081Z,36.77
2019-03-24T04:52:38.294Z,30.75
2019-03-24T04:55:07.005Z,38.35
2019-03-24T04:57:35.216Z,39.15
2019-03-24T05:00:07.378Z,30.85
2019-03-24T05:02:35.597Z,31.95
2019-03-24T05:05:05.353Z,34.25
2019-03-24T05:07:33.568Z,31.40
2019-03-24T05:10:02.142Z,34.08
2019-03-24T05:12:30.366Z,32.67
2019-03-24T05:14:58.616Z,36.30
2019-03-24T05:17:27.479Z,25.48
2019-03-24T05:19:55.952Z,35.50
2019-03-24T05:22:24.151Z,37.98
2019-03-24T05:24:52.375Z,44.30
2019-03-24T05:27:20.588Z,33.53
2019-03-24T05:29:48.838Z,36.83
2019-03-24T05:32:17.051Z,32.08
2019-03-24T05:34:45.274Z,33.10
2019-03-24T05:37:13.477Z,27.67
2019-03-24T05:39:41.706Z,32.98
2019-03-24T05:42:09.976Z,29.98
2019-03-24T05:44:38.318Z,31.03
2019-03-24T05:47:06.549Z,31.97
2019-03-24T05:49:34.768Z,27.50
2019-03-24T05:52:02.993Z,36.00
2019-03-24T05:54:31.224Z,34.80
2019-03-24T05:57:00.502Z,41.45
2019-03-24T05:59:28.711Z,35.00
2019-03-24T06:01:56.938Z,30.90
2019-03-24T06:04:25.168Z,22.75
2019-03-24T06:06:53.391Z,36.75
2019-03-24T06:09:21.594Z,36.63
2019-03-24T06:11:49.880Z,32.60
2019-03-24T06:14:18.101Z,36.88
2019-03-24T06:16:46.411Z,32.33
2019-03-24T06:19:14.628Z,36.28
2019-03-24T06:21:42.841Z,35.43
2019-03-24T06:24:11.085Z,41.75
2019-03-24T06:26:39.302Z,46.15
2019-03-24T06:29:07.535Z,36.90
2019-03-24T06:31:35.743Z,41.68
2019-03-24T06:34:03.961Z,38.33
2019-03-24T06:36:32.260Z,39.63
2019-03-24T06:39:00.726Z,35.17
2019-03-24T06:41:28.955Z,40.03
2019-03-24T06:43:57.173Z,44.77
2019-03-24T06:46:25.390Z,34.70
2019-03-24T06:48:53.633Z,36.00
2019-03-24T06:51:21.845Z,29.90
2019-03-24T06:53:50.072Z,35.80
2019-03-24T06:56:18.284Z,33.70
2019-03-24T06:58:46.541Z,35.28
2019-03-24T07:01:14.745Z,32.93
2019-03-24T07:03:42.967Z,32.15
2019-03-24T07:06:11.209Z,29.05
2019-03-24T07:08:39.418Z,32.33
2019-03-24T07:11:13.335Z,36.23
2019-03-24T07:13:37.567Z,35.33
2019-03-24T07:16:05.790Z,37.08
2019-03-24T07:18:34.021Z,24.05
2019-03-24T07:21:02.621Z,29.60
2019-03-24T07:23:31.028Z,30.20
2019-03-24T07:25:59.228Z,32.00
2019-03-24T07:28:27.454Z,35.45
2019-03-24T07:30:55.683Z,34.73
2019-03-24T07:33:23.898Z,28.67
2019-03-24T07:35:52.119Z,39.60
2019-03-24T07:38:20.339Z,33.02
2019-03-24T07:40:48.571Z,30.72
2019-03-24T07:43:16.793Z,34.00
2019-03-24T07:45:45.021Z,30.00
2019-03-24T07:48:18.951Z,37.40
2019-03-24T07:50:43.169Z,31.07
2019-03-24T07:53:11.423Z,34.83
2019-03-24T07:55:39.646Z,30.85
2019-03-24T07:58:07.867Z,36.05
2019-03-24T08:00:37.234Z,31.20
2019-03-24T08:03:05.514Z,31.80
2019-03-24T08:05:33.732Z,36.15
2019-03-24T08:08:01.957Z,34.15
2019-03-24T08:10:31.211Z,32.33
2019-03-24T08:12:59.421Z,38.73
2019-03-24T08:15:27.658Z,36.90
2019-03-24T08:17:55.848Z,32.30
2019-03-24T08:20:24.086Z,32.42
2019-03-24T08:22:52.312Z,30.27
2019-03-24T08:25:20.527Z,37.80
2019-03-24T08:27:48.763Z,28.70
2019-03-24T08:30:20.223Z,30.92
2019-03-24T08:32:48.447Z,29.77
2019-03-24T08:35:16.656Z,27.25
2019-03-24T08:37:44.876Z,33.80
2019-03-24T08:40:13.130Z,34.85
2019-03-24T08:42:41.336Z,33.90
2019-03-24T08:45:12.854Z,31.33
2019-03-24T08:47:41.058Z,26.75
2019-03-24T08:50:09.307Z,27.00
2019-03-24T08:52:37.540Z,30.47
2019-03-24T08:55:06.395Z,30.54
2019-03-24T08:57:34.610Z,29.92
2019-03-24T09:00:03.998Z,29.25
2019-03-24T09:02:32.505Z,25.82
2019-03-24T09:05:01.673Z,23.73
2019-03-24T09:07:30.050Z,30.40
2019-03-24T09:09:58.278Z,25.72
2019-03-24T09:12:26.497Z,28.60
2019-03-24T09:14:54.708Z,31.90
2019-03-24T09:17:22.991Z,30.95
2019-03-24T09:19:51.170Z,33.05
2019-03-24T09:22:19.394Z,28.45
2019-03-24T09:24:47.704Z,28.35
2019-03-24T09:27:15.909Z,25.02
2019-03-24T09:29:44.134Z,25.10
2019-03-24T09:32:12.355Z,31.23
2019-03-24T09:34:40.660Z,27.15
2019-03-24T09:37:08.897Z,22.43
2019-03-24T09:39:37.115Z,21.50
2019-03-24T09:42:05.364Z,25.90
2019-03-24T09:44:33.584Z,26.62
2019-03-24T09:47:02.534Z,22.52
2019-03-24T09:49:30.760Z,23.92
2019-03-24T09:51:58.971Z,21.97
2019-03-24T09:54:27.198Z,24.67
2019-03-24T09:56:55.481Z,25.05
2019-03-24T09:59:23.719Z,24.10
2019-03-24T10:01:51.932Z,26.30
2019-03-24T10:04:20.146Z,27.13
2019-03-24T10:06:48.368Z,24.60
2019-03-24T10:09:16.585Z,23.52
2019-03-24T10:11:44.805Z,21.35
2019-03-24T10:14:13.026Z,26.68
2019-03-24T10:16:41.277Z,27.50
2019-03-24T10:19:13.902Z,23.65
2019-03-24T10:21:39.430Z,23.90
2019-03-24T10:24:08.019Z,26.45
2019-03-24T10:26:36.346Z,23.27
2019-03-24T10:29:04.575Z,24.12
2019-03-24T10:31:32.793Z,21.55
2019-03-24T10:34:01.063Z,23.30
2019-03-24T10:36:29.281Z,23.05
2019-03-24T10:38:57.556Z,24.73
2019-03-24T10:41:25.780Z,21.12
2019-03-24T10:43:54.264Z,25.00
2019-03-24T10:46:22.474Z,26.97
2019-03-24T10:48:50.695Z,27.17
2019-03-24T10:51:18.917Z,23.20
2019-03-24T10:53:47.138Z,24.35
2019-03-24T10:56:15.350Z,22.45
2019-03-24T10:58:43.565Z,22.45
2019-03-24T11:01:11.816Z,21.12
2019-03-24T11:03:40.050Z,20.37
2019-03-24T11:06:08.415Z,17.64
2019-03-24T11:08:36.793Z,19.02
2019-03-24T11:11:05.018Z,17.20
2019-03-24T11:13:33.235Z,18.23
2019-03-24T11:16:01.450Z,18.80
2019-03-24T11:18:29.677Z,19.23
2019-03-24T11:20:57.891Z,14.90
2019-03-24T11:23:26.145Z,21.82
2019-03-24T11:25:54.360Z,18.57
2019-03-24T11:28:22.583Z,17.73
2019-03-24T11:30:50.803Z,21.00
2019-03-24T11:33:19.035Z,20.70
2019-03-24T11:35:47.272Z,21.60
2019-03-24T11:38:15.483Z,15.88
2019-03-24T11:40:43.705Z,13.43
2019-03-24T11:43:11.929Z,16.05
2019-03-24T11:45:40.151Z,14.78
2019-03-24T11:48:08.392Z,16.73
2019-03-24T11:50:36.642Z,16.30
2019-03-24T11:53:04.867Z,17.55
2019-03-24T11:55:33.102Z,17.15
2019-03-24T11:58:05.828Z,16.40
2019-03-24T12:00:35.620Z,19.80
2019-03-24T12:03:03.834Z,15.25
2019-03-24T12:05:33.099Z,14.50
2019-03-24T12:08:01.329Z,19.35
2019-03-24T12:10:29.547Z,16.32
2019-03-24T12:12:57.774Z,16.67
2019-03-24T12:15:26.008Z,19.62
2019-03-24T12:17:54.406Z,12.35
2019-03-24T12:20:22.624Z,11.88
2019-03-24T12:22:50.858Z,11.93
2019-03-24T12:25:19.077Z,10.65
2019-03-24T12:27:47.296Z,12.70
2019-03-24T12:30:15.596Z,13.05
2019-03-24T12:32:43.852Z,14.70
2019-03-24T12:35:12.495Z,13.28
2019-03-24T12:37:40.719Z,13.15
2019-03-24T12:40:09.768Z,16.80
2019-03-24T12:42:38.921Z,13.75
2019-03-24T12:45:07.675Z,8.60
2019-03-24T12:47:35.920Z,12.40
2019-03-24T12:50:09.284Z,14.43
2019-03-24T12:52:36.135Z,12.82
2019-03-24T12:55:05.098Z,14.03
2019-03-24T12:57:33.522Z,9.18
2019-03-24T13:00:01.765Z,10.05
2019-03-24T13:02:29.976Z,13.48
2019-03-24T13:04:58.192Z,12.03
2019-03-24T13:07:26.435Z,9.95
2019-03-24T13:09:54.646Z,12.78
2019-03-24T13:12:22.889Z,12.25
2019-03-24T13:14:51.090Z,9.58
2019-03-24T13:17:19.310Z,8.18
2019-03-24T13:19:49.220Z,11.35
2019-03-24T13:22:17.430Z,8.23
2019-03-24T13:24:45.671Z,9.10
2019-03-24T13:27:13.886Z,8.68
2019-03-24T13:29:42.103Z,9.50
2019-03-24T13:32:10.316Z,10.78
2019-03-24T13:34:38.526Z,9.60
2019-03-24T13:37:06.769Z,10.83
2019-03-24T13:39:34.991Z,10.03
2019-03-24T13:42:03.880Z,11.38
2019-03-24T13:44:32.094Z,10.90
2019-03-24T13:47:00.312Z,9.45
2019-03-24T13:49:28.536Z,10.63
2019-03-24T13:51:56.755Z,9.85
2019-03-24T13:54:24.986Z,11.12
2019-03-24T13:56:53.202Z,9.05
2019-03-24T13:59:21.819Z,12.10
2019-03-24T14:01:51.658Z,9.55
2019-03-24T14:04:19.895Z,8.80
2019-03-24T14:06:51.026Z,13.32
2019-03-24T14:09:19.289Z,11.65
2019-03-24T14:11:47.561Z,10.38
2019-03-24T14:14:15.778Z,10.75
2019-03-24T14:16:46.500Z,10.73
2019-03-24T14:19:13.944Z,12.98
2019-03-24T14:21:42.169Z,13.83
2019-03-24T14:24:10.417Z,12.68
2019-03-24T14:26:38.621Z,9.58
2019-03-24T14:29:06.841Z,15.80
2019-03-24T14:31:35.050Z,11.30
2019-03-24T14:34:04.330Z,14.20
2019-03-24T14:36:32.561Z,9.45
2019-03-24T14:39:00.789Z,13.32
2019-03-24T14:41:29.007Z,15.75
2019-03-24T14:43:57.224Z,13.27
2019-03-24T14:46:25.449Z,15.43
2019-03-24T14:48:53.679Z,11.63
2019-03-24T14:51:21.902Z,18.07
2019-03-24T14:53:50.121Z,15.58
2019-03-24T14:56:18.332Z,12.70
2019-03-24T14:58:46.557Z,15.53
2019-03-24T15:01:14.774Z,14.75
2019-03-24T15:03:43.007Z,12.40
2019-03-24T15:06:11.223Z,15.90
2019-03-24T15:08:39.446Z,16.20
2019-03-24T15:11:07.672Z,20.10
2019-03-24T15:13:35.905Z,15.48
2019-03-24T15:16:04.530Z,17.12
2019-03-24T15:18:32.757Z,15.15
2019-03-24T15:21:05.682Z,14.30
2019-03-24T15:23:30.989Z,14.70
2019-03-24T15:25:59.210Z,15.40
2019-03-24T15:28:27.424Z,18.55
2019-03-24T15:30:55.659Z,19.02
2019-03-24T15:33:23.888Z,17.23
2019-03-24T15:35:52.102Z,16.55
2019-03-24T15:38:20.343Z,18.02
2019-03-24T15:40:49.534Z,19.80
2019-03-24T15:43:17.900Z,17.42
2019-03-24T15:45:46.197Z,18.82
2019-03-24T15:48:14.418Z,20.52
2019-03-24T15:50:42.658Z,18.77
2019-03-24T15:53:10.873Z,14.90
2019-03-24T15:55:39.101Z,16.62
2019-03-24T15:58:07.326Z,19.62
2019-03-24T16:00:47.698Z,17.05
2019-03-24T16:03:15.901Z,15.73
2019-03-24T16:05:44.131Z,20.05
2019-03-24T16:08:12.348Z,18.70
2019-03-24T16:10:40.568Z,17.70
2019-03-24T16:13:08.886Z,21.77
2019-03-24T16:15:37.093Z,26.90
2019-03-24T16:18:05.330Z,22.93
2019-03-24T16:20:33.538Z,19.30
2019-03-24T16:23:01.760Z,21.48
2019-03-24T16:25:30.226Z,20.62
2019-03-24T16:27:58.450Z,21.10
2019-03-24T16:30:26.671Z,19.60
2019-03-24T16:32:54.963Z,23.92
2019-03-24T16:35:23.178Z,21.65
2019-03-24T16:37:51.439Z,16.50
2019-03-24T16:40:19.780Z,20.02
2019-03-24T16:42:48.003Z,23.20
2019-03-24T16:45:16.224Z,17.23
2019-03-24T16:47:44.472Z,21.82
2019-03-24T16:50:12.704Z,20.12
2019-03-24T16:52:40.914Z,24.10
2019-03-24T16:55:09.156Z,20.52
2019-03-24T16:57:37.360Z,16.65
2019-03-24T17:00:08.544Z,23.02
2019-03-24T17:05:09.237Z,23.83
2019-03-24T17:07:37.466Z,30.05
2019-03-24T17:10:06.623Z,17.07
2019-03-24T17:12:35.600Z,24.37
2019-03-24T17:15:05.862Z,20.43
2019-03-24T17:17:34.082Z,21.20
2019-03-24T17:20:02.299Z,18.45
2019-03-24T17:22:30.524Z,20.30
2019-03-24T17:24:58.739Z,24.32
2019-03-24T17:27:26.963Z,22.27
2019-03-24T17:29:55.299Z,23.07
2019-03-24T17:32:23.530Z,22.30
2019-03-24T17:34:51.792Z,23.67
2019-03-24T17:37:20.042Z,19.30
2019-03-24T17:39:48.269Z,24.65
2019-03-24T17:42:16.564Z,24.43
2019-03-24T17:44:46.183Z,24.32
2019-03-24T17:47:14.535Z,28.30
2019-03-24T17:49:42.782Z,19.75
2019-03-24T17:52:11.000Z,25.17
2019-03-24T17:54:39.226Z,22.15
2019-03-24T17:57:07.482Z,24.07
2019-03-24T17:59:35.709Z,21.02
2019-03-24T18:02:14.006Z,27.87
2019-03-24T18:04:33.856Z,21.90
2019-03-24T18:07:02.068Z,25.35
2019-03-24T18:09:31.111Z,17.70
2019-03-24T18:11:59.390Z,20.40
2019-03-24T18:14:27.604Z,18.02
2019-03-24T18:16:55.820Z,22.42
2019-03-24T18:19:24.051Z,20.30
2019-03-24T18:21:52.276Z,18.20
2019-03-24T18:24:20.499Z,22.65
2019-03-24T18:26:48.789Z,13.53
2019-03-24T18:29:17.018Z,17.77
2019-03-24T18:31:45.227Z,21.77
2019-03-24T18:34:13.434Z,17.45
2019-03-24T18:36:41.651Z,14.30
2019-03-24T18:39:09.861Z,17.05
2019-03-24T18:41:38.086Z,15.30
2019-03-24T18:44:06.304Z,13.32
2019-03-24T18:46:34.538Z,12.90
2019-03-24T18:49:02.775Z,18.30
2019-03-24T18:51:30.981Z,16.42
2019-03-24T18:53:59.196Z,20.15
2019-03-24T18:56:27.473Z,15.05
2019-03-24T18:58:55.704Z,14.15
2019-03-24T19:01:23.922Z,13.38
2019-03-24T19:03:52.137Z,14.68
2019-03-24T19:06:20.361Z,19.50
2019-03-24T19:08:48.570Z,15.85
2019-03-24T19:11:16.790Z,15.15
2019-03-24T19:13:45.035Z,16.00
2019-03-24T19:16:13.232Z,11.45
2019-03-24T19:18:41.454Z,12.43
2019-03-24T19:21:09.664Z,14.73
2019-03-24T19:23:37.912Z,12.40
2019-03-24T19:26:06.622Z,16.20
2019-03-24T19:28:34.847Z,14.78
2019-03-24T19:31:03.069Z,14.87
2019-03-24T19:33:31.332Z,14.70
2019-03-24T19:35:59.545Z,12.10
2019-03-24T19:38:27.778Z,11.50
2019-03-24T19:40:56.014Z,14.70
2019-03-24T19:43:24.236Z,9.73
2019-03-24T19:45:52.446Z,15.03
2019-03-24T19:48:20.707Z,14.23
2019-03-24T19:50:48.930Z,11.88
2019-03-24T19:53:17.152Z,15.83
2019-03-24T19:55:45.375Z,14.75
2019-03-24T19:58:13.577Z,11.22
2019-03-24T20:00:41.793Z,11.17
2019-03-24T20:03:10.021Z,14.03
2019-03-24T20:05:38.230Z,12.13
2019-03-24T20:08:06.846Z,11.53
2019-03-24T20:10:35.067Z,12.70
2019-03-24T20:13:03.303Z,17.55
2019-03-24T20:15:31.515Z,24.57
2019-03-24T20:17:59.743Z,16.60
2019-03-24T20:20:27.970Z,19.73
2019-03-24T20:22:57.099Z,14.13
2019-03-24T20:25:25.796Z,14.70
2019-03-24T20:27:54.005Z,13.00
2019-03-24T20:30:22.246Z,15.48
2019-03-24T20:32:50.435Z,13.78
2019-03-24T20:35:18.657Z,13.13
2019-03-24T20:37:46.868Z,13.88
2019-03-24T20:40:15.148Z,13.00
2019-03-24T20:42:43.366Z,15.75
2019-03-24T20:45:11.577Z,14.47
2019-03-24T20:47:39.785Z,14.83
2019-03-24T20:50:08.461Z,15.30
2019-03-24T20:52:37.101Z,12.15
2019-03-24T20:55:06.960Z,16.20
2019-03-24T20:57:35.171Z,15.30
2019-03-24T21:00:03.525Z,16.48
2019-03-24T21:02:31.750Z,12.95
2019-03-24T21:04:59.964Z,12.63
2019-03-24T21:07:28.182Z,17.63
2019-03-24T21:09:56.393Z,14.75
2019-03-24T21:12:24.609Z,15.28
2019-03-24T21:14:52.877Z,15.23
2019-03-24T21:17:21.605Z,18.42
2019-03-24T21:19:50.095Z,14.73
2019-03-24T21:22:18.307Z,19.12
2019-03-24T21:24:46.516Z,11.93
2019-03-24T21:27:14.732Z,12.33
2019-03-24T21:29:42.942Z,15.28
2019-03-24T21:32:11.162Z,19.82
2019-03-24T21:34:39.402Z,16.47
2019-03-24T21:37:07.604Z,13.03
2019-03-24T21:39:35.840Z,16.87
2019-03-24T21:42:04.060Z,15.23
2019-03-24T21:44:32.270Z,14.07
2019-03-24T21:47:00.486Z,10.78
2019-03-24T21:49:28.708Z,13.50
2019-03-24T21:51:56.920Z,15.28
2019-03-24T21:54:25.153Z,14.87
2019-03-24T21:56:53.341Z,14.25
2019-03-24T21:59:21.563Z,10.82
2019-03-24T22:01:49.772Z,14.58
2019-03-24T22:04:18.000Z,16.87
2019-03-24T22:06:46.206Z,12.65
2019-03-24T22:09:14.415Z,23.42
2019-03-24T22:11:42.640Z,14.07
2019-03-24T22:14:10.859Z,16.95
2019-03-24T22:16:39.063Z,17.52
2019-03-24T22:19:07.821Z,14.53
2019-03-24T22:21:36.182Z,16.62
2019-03-24T22:24:04.396Z,17.70
2019-03-24T22:26:32.616Z,17.07
2019-03-24T22:29:00.832Z,13.72
2019-03-24T22:31:29.080Z,18.62
2019-03-24T22:33:57.315Z,17.45
2019-03-24T22:36:26.668Z,22.82
2019-03-24T22:38:54.867Z,16.52
2019-03-24T22:41:23.081Z,16.75
2019-03-24T22:43:51.301Z,15.72
2019-03-24T22:46:21.192Z,15.68
2019-03-24T22:48:49.444Z,13.90
2019-03-24T22:51:17.653Z,14.20
2019-03-24T22:53:45.878Z,17.23
2019-03-24T22:56:14.092Z,18.23
2019-03-24T22:58:42.314Z,14.64
2019-03-24T23:01:10.817Z,19.73
2019-03-24T23:03:39.049Z,16.00
2019-03-24T23:06:08.224Z,19.15
2019-03-24T23:08:36.442Z,16.25
2019-03-24T23:11:04.693Z,13.43
2019-03-24T23:13:32.942Z,17.50
2019-03-24T23:16:01.204Z,20.20
2019-03-24T23:18:29.418Z,20.50
2019-03-24T23:20:57.658Z,23.32
2019-03-24T23:23:25.877Z,15.65
2019-03-24T23:25:54.085Z,17.75
2019-03-24T23:28:22.327Z,17.40
2019-03-24T23:30:50.544Z,15.68
2019-03-24T23:33:18.753Z,17.52
2019-03-24T23:35:47.000Z,16.95
2019-03-24T23:38:15.219Z,21.05
2019-03-24T23:40:43.435Z,19.50
2019-03-24T23:43:11.643Z,14.33
2019-03-24T23:45:39.873Z,19.05
2019-03-24T23:48:08.635Z,15.25
2019-03-24T23:50:36.857Z,13.40
2019-03-24T23:53:05.072Z,14.45
2019-03-24T23:55:33.300Z,15.20
2019-03-24T23:58:01.533Z,15.80
